Bda Tomei, Puerto Rico
Current Conditions -  °F | °C
As of 9:50 AM on Wednesday 28 Jan 2015 (Local Time) from TJBQ Reporting Station
Scattered Clouds Scattered Clouds  
Wind Chill: 81°   Ceiling: Unl
Heat Index: 83°   Visibility: 10mi
Dew Point: 66°   Wind: 0mph
Humidity: 61%   Direction: NA
Pressure: 30.06"   Gusts: NA
Location:  18.0409°N, 67.0495°W
Report Text: TJBQ 281350Z 00000KT 10SM SCT030 27/19 A3006 RMK RWY08 ATIS L
Loading
Personal Weather Stations






























Interactive Weather Map New forecast layout! Learn more

10-Day Weather Forecast

Advertisements
Track Severe Weather on mobile